Seaman, Ohio
Current Conditions -  °F | °C
As of 12:35 AM on Sunday 26 Oct 2014 (Local Time) from KFGX Reporting Station
Clear Clear  
Wind Chill: 58°   Ceiling: Unl
Heat Index: 58°   Visibility: 10mi
Dew Point: 55°   Wind: 8mph
Humidity: 88%   Direction: 270°W
Pressure: 29.94"   Gusts: NA
Location:  38.94°N, 83.57°W
Report Text: KFGX 260435Z AUTO 27007KT 10SM CLR 15/13 A2994 RMK AO2 T01450125
Loading
Personal Weather Stations






























Interactive Weather Map
Tropical Storm Tracking
New forecast layout! Learn more

10-Day Weather Forecast

Advertisements
Track Severe Weather on mobile